OOCL Norfolk — VREX4 — position and weather

sailwx.info

Track history (hours):
 
Tides and Currents Weather Stations Pressure Air Temp Water Temp Dewpoint Dewpoint Depression Visibility Wind Speed Wind Dir Waves Ship Positions

OOCL Norfolk

Last reported at 2018-Apr-25 07:15 UTC. Time now 2018-Apr-26 01:42 UTC.
Position N 36°00' E 120°24'.

Length 260 m; draft 7 m.

Type: Cargo ship. MMSI: 477189700.

Date/timePositionNaut miles runAvg speedWind from/ knotsBaromVisibWave heightAir tempDewpointWater temp
2018-Apr-25 07:15N 36°00' E 120°24'311.1
2018-Apr-25 07:00N 36°01' E 120°20'4 8.3
2018-Apr-25 06:30N 36°02' E 120°15'2 4.6
2018-Apr-25 06:00N 36°01' E 120°14'0 0.0
2018-Apr-25 05:22N 36°01' E 120°14'0 0.0
2018-Apr-25 04:50N 36°01' E 120°14'0 0.0
2018-Apr-25 04:16N 36°01' E 120°14'0 0.1
2018-Apr-25 03:45N 36°01' E 120°13'0 0.0
2018-Apr-25 03:25N 36°01' E 120°13'0 0.0
2018-Apr-25 00:43N 36°01' E 120°14'0 0.0
2018-Apr-25 00:25N 36°01' E 120°14'0 0.0
2018-Apr-24 23:34N 36°01' E 120°14'0 0.0
2018-Apr-24 23:10N 36°01' E 120°14'0 0.0
2018-Apr-24 22:53N 36°01' E 120°14'0 0.1
2018-Apr-24 22:13N 36°01' E 120°13'0 0.0
2018-Apr-24 21:58N 36°01' E 120°13'0 0.1
2018-Apr-24 21:26N 36°01' E 120°14'3 4.7
2018-Apr-24 20:48N 36°02' E 120°17'3 9.2
2018-Apr-24 20:28N 36°02' E 120°21'  
2018-Apr-20 16:18N 38°52' E 118°20'1613.6
2018-Apr-20 15:07N 38°49' E 118°40'113.6
2018-Apr-20 15:00N 38°49' E 118°42'713.9
2018-Apr-20 14:30N 38°48' E 118°51'3213.7
2018-Apr-20 12:11N 38°45' E 119°31'213.8
2018-Apr-20 12:00N 38°45' E 119°35'3314.5
2018-Apr-20 09:42N 38°40' E 120°17'715.5
2018-Apr-20 09:16N 38°39' E 120°25'415.6
2018-Apr-20 09:00N 38°39' E 120°31'1015.8
2018-Apr-20 08:24N 38°38' E 120°43'1016.7
2018-Apr-20 07:46N 38°36' E 120°56'517.7
2018-Apr-20 07:30N 38°34' E 121°02'917.6
2018-Apr-20 07:00N 38°30' E 121°12'917.2
2018-Apr-20 06:30N 38°26' E 121°21'816.8
2018-Apr-20 06:00N 38°22' E 121°30'916.8
2018-Apr-20 05:30N 38°17' E 121°40'816.9
2018-Apr-20 05:00N 38°13' E 121°49'816.5
2018-Apr-20 04:30N 38°09' E 121°58'816.4
2018-Apr-20 04:00N 38°04' E 122°06'816.3
2018-Apr-20 03:30N 38°00' E 122°15'816.4
2018-Apr-20 03:00N 37°56' E 122°24'1916.7
2018-Apr-20 01:53N 37°47' E 122°45'616.8
2018-Apr-20 01:30N 37°43' E 122°52'1316.6
2018-Apr-20 00:43N 37°36' E 123°06'516.3
2018-Apr-20 00:24N 37°34' E 123°11'616.4
2018-Apr-20 00:00N 37°30' E 123°18'815.3
2018-Apr-19 23:30N 37°25' E 123°25'4016.5
2018-Apr-19 21:06N 36°48' E 123°45'716.0
2018-Apr-19 20:40N 36°42' E 123°49'416.1
2018-Apr-19 20:26N 36°39' E 123°51'915.9
2018-Apr-19 19:53N 36°31' E 123°56'1215.7
2018-Apr-19 19:08N 36°20' E 124°02'16415.7
2018-Apr-19 08:42N 33°59' E 125°45'617.7
2018-Apr-19 08:22N 33°57' E 125°51'1117.6
2018-Apr-19 07:43N 33°52' E 126°04'417.8
2018-Apr-19 07:30N 33°50' E 126°08'917.2
2018-Apr-19 07:00N 33°49' E 126°18'917.7
2018-Apr-19 06:30N 33°49' E 126°29'918.1
2018-Apr-19 06:01N 33°50' E 126°40'2318.1
2018-Apr-19 04:44N 33°51' E 127°08'517.9
2018-Apr-19 04:29N 33°51' E 127°13'817.3
2018-Apr-19 04:00N 33°51' E 127°23'1014.3
2018-Apr-19 03:17N 33°52' E 127°35'414.1
2018-Apr-19 03:00N 33°53' E 127°40'714.3
2018-Apr-19 02:31N 33°58' E 127°46'714.4
2018-Apr-19 02:00N 34°03' E 127°52'714.2
2018-Apr-19 01:30N 34°07' E 127°59'2314.4
2018-Apr-18 23:55N 34°22' E 128°21'614.7
2018-Apr-18 23:31N 34°25' E 128°26'2015.0
2018-Apr-18 22:09N 34°38' E 128°46'314.9
2018-Apr-18 21:58N 34°39' E 128°49'1614.7
2018-Apr-18 20:52N 34°55' E 128°49'411 9.3
2018-Apr-17 00:36N 35°59' E 120°31'619.1
2018-Apr-17 00:16N 36°00' E 120°23'513.5
2018-Apr-16 23:53N 36°02' E 120°17'3 4.6
2018-Apr-16 23:16N 36°01' E 120°14'0 0.0
2018-Apr-16 22:58N 36°01' E 120°14'0 0.0
2018-Apr-16 22:26N 36°01' E 120°14'0 0.0
2018-Apr-16 21:40N 36°01' E 120°14'0 0.0
2018-Apr-16 21:25N 36°01' E 120°14'0 0.0
2018-Apr-16 20:50N 36°01' E 120°14'0 0.0
2018-Apr-16 19:22N 36°01' E 120°14'0 0.0
2018-Apr-16 18:40N 36°01' E 120°14'0 0.0
2018-Apr-16 18:25N 36°01' E 120°14'0 0.0
2018-Apr-16 17:52N 36°01' E 120°14'0 0.0
2018-Apr-16 17:19N 36°01' E 120°14'0 0.1
2018-Apr-16 16:23N 36°01' E 120°13'0 0.0
2018-Apr-16 14:53N 36°01' E 120°14'0 0.0
2018-Apr-16 14:05N 36°01' E 120°14'0 0.0
2018-Apr-16 13:46N 36°01' E 120°14'0 0.0
2018-Apr-16 13:01N 36°01' E 120°14'0 0.0
2018-Apr-16 11:53N 36°01' E 120°14'0 0.0
2018-Apr-16 11:16N 36°01' E 120°14'0 0.0
2018-Apr-16 11:00N 36°01' E 120°14'1 2.1
2018-Apr-16 10:30N 36°01' E 120°14'5 9.7
2018-Apr-16 09:59N 36°01' E 120°20'14611.0
2018-Apr-15 20:43N 38°02' E 122°04'518.4
2018-Apr-15 20:26N 38°05' E 121°59'2018.9
2018-Apr-15 19:24N 38°14' E 121°37'1018.7
2018-Apr-15 18:52N 38°19' E 121°25'1118.5
2018-Apr-15 18:18N 38°25' E 121°14'2017.9
2018-Apr-15 17:11N 38°34' E 120°52'317.6
2018-Apr-15 17:00N 38°35' E 120°48'1317.4
2018-Apr-15 16:16N 38°37' E 120°32'  
Track history (hours):
 
Tides and Currents Weather Stations Pressure Air Temp Water Temp Dewpoint Dewpoint Depression Visibility Wind Speed Wind Dir Waves Ship Positions

OOCL Norfolk

Last reported at 2018-Apr-25 07:15 UTC. Time now 2018-Apr-26 01:42 UTC.
Position N 36°00' E 120°24'.

Length 260 m; draft 7 m.

Type: Cargo ship. MMSI: 477189700.

Date/timePositionNaut miles runAvg speedWind from/ knotsBaromVisibWave heightAir tempDewpointWater temp
2018-Apr-25 07:15N 36°00' E 120°24'311.1
2018-Apr-25 07:00N 36°01' E 120°20'4 8.3
2018-Apr-25 06:30N 36°02' E 120°15'2 4.6
2018-Apr-25 06:00N 36°01' E 120°14'0 0.0
2018-Apr-25 05:22N 36°01' E 120°14'0 0.0
2018-Apr-25 04:50N 36°01' E 120°14'0 0.0
2018-Apr-25 04:16N 36°01' E 120°14'0 0.1
2018-Apr-25 03:45N 36°01' E 120°13'0 0.0
2018-Apr-25 03:25N 36°01' E 120°13'0 0.0
2018-Apr-25 00:43N 36°01' E 120°14'0 0.0
2018-Apr-25 00:25N 36°01' E 120°14'0 0.0
2018-Apr-24 23:34N 36°01' E 120°14'0 0.0
2018-Apr-24 23:10N 36°01' E 120°14'0 0.0
2018-Apr-24 22:53N 36°01' E 120°14'0 0.1
2018-Apr-24 22:13N 36°01' E 120°13'0 0.0
2018-Apr-24 21:58N 36°01' E 120°13'0 0.1
2018-Apr-24 21:26N 36°01' E 120°14'3 4.7
2018-Apr-24 20:48N 36°02' E 120°17'3 9.2
2018-Apr-24 20:28N 36°02' E 120°21'  
2018-Apr-20 16:18N 38°52' E 118°20'1613.6
2018-Apr-20 15:07N 38°49' E 118°40'113.6
2018-Apr-20 15:00N 38°49' E 118°42'713.9
2018-Apr-20 14:30N 38°48' E 118°51'3213.7
2018-Apr-20 12:11N 38°45' E 119°31'213.8
2018-Apr-20 12:00N 38°45' E 119°35'3314.5
2018-Apr-20 09:42N 38°40' E 120°17'715.5
2018-Apr-20 09:16N 38°39' E 120°25'415.6
2018-Apr-20 09:00N 38°39' E 120°31'1015.8
2018-Apr-20 08:24N 38°38' E 120°43'1016.7
2018-Apr-20 07:46N 38°36' E 120°56'517.7
2018-Apr-20 07:30N 38°34' E 121°02'917.6
2018-Apr-20 07:00N 38°30' E 121°12'917.2
2018-Apr-20 06:30N 38°26' E 121°21'816.8
2018-Apr-20 06:00N 38°22' E 121°30'916.8
2018-Apr-20 05:30N 38°17' E 121°40'816.9
2018-Apr-20 05:00N 38°13' E 121°49'816.5
2018-Apr-20 04:30N 38°09' E 121°58'816.4
2018-Apr-20 04:00N 38°04' E 122°06'816.3
2018-Apr-20 03:30N 38°00' E 122°15'816.4
2018-Apr-20 03:00N 37°56' E 122°24'1916.7
2018-Apr-20 01:53N 37°47' E 122°45'616.8
2018-Apr-20 01:30N 37°43' E 122°52'1316.6
2018-Apr-20 00:43N 37°36' E 123°06'516.3
2018-Apr-20 00:24N 37°34' E 123°11'616.4
2018-Apr-20 00:00N 37°30' E 123°18'815.3
2018-Apr-19 23:30N 37°25' E 123°25'4016.5
2018-Apr-19 21:06N 36°48' E 123°45'716.0
2018-Apr-19 20:40N 36°42' E 123°49'416.1
2018-Apr-19 20:26N 36°39' E 123°51'915.9
2018-Apr-19 19:53N 36°31' E 123°56'1215.7
2018-Apr-19 19:08N 36°20' E 124°02'16415.7
2018-Apr-19 08:42N 33°59' E 125°45'617.7
2018-Apr-19 08:22N 33°57' E 125°51'1117.6
2018-Apr-19 07:43N 33°52' E 126°04'417.8
2018-Apr-19 07:30N 33°50' E 126°08'917.2
2018-Apr-19 07:00N 33°49' E 126°18'917.7
2018-Apr-19 06:30N 33°49' E 126°29'918.1
2018-Apr-19 06:01N 33°50' E 126°40'2318.1
2018-Apr-19 04:44N 33°51' E 127°08'517.9
2018-Apr-19 04:29N 33°51' E 127°13'817.3
2018-Apr-19 04:00N 33°51' E 127°23'1014.3
2018-Apr-19 03:17N 33°52' E 127°35'414.1
2018-Apr-19 03:00N 33°53' E 127°40'714.3
2018-Apr-19 02:31N 33°58' E 127°46'714.4
2018-Apr-19 02:00N 34°03' E 127°52'714.2
2018-Apr-19 01:30N 34°07' E 127°59'2314.4
2018-Apr-18 23:55N 34°22' E 128°21'614.7
2018-Apr-18 23:31N 34°25' E 128°26'2015.0
2018-Apr-18 22:09N 34°38' E 128°46'314.9
2018-Apr-18 21:58N 34°39' E 128°49'1614.7
2018-Apr-18 20:52N 34°55' E 128°49'411 9.3
2018-Apr-17 00:36N 35°59' E 120°31'619.1
2018-Apr-17 00:16N 36°00' E 120°23'513.5
2018-Apr-16 23:53N 36°02' E 120°17'3 4.6
2018-Apr-16 23:16N 36°01' E 120°14'0 0.0
2018-Apr-16 22:58N 36°01' E 120°14'0 0.0
2018-Apr-16 22:26N 36°01' E 120°14'0 0.0
2018-Apr-16 21:40N 36°01' E 120°14'0 0.0
2018-Apr-16 21:25N 36°01' E 120°14'0 0.0
2018-Apr-16 20:50N 36°01' E 120°14'0 0.0
2018-Apr-16 19:22N 36°01' E 120°14'0 0.0
2018-Apr-16 18:40N 36°01' E 120°14'0 0.0
2018-Apr-16 18:25N 36°01' E 120°14'0 0.0
2018-Apr-16 17:52N 36°01' E 120°14'0 0.0
2018-Apr-16 17:19N 36°01' E 120°14'0 0.1
2018-Apr-16 16:23N 36°01' E 120°13'0 0.0
2018-Apr-16 14:53N 36°01' E 120°14'0 0.0
2018-Apr-16 14:05N 36°01' E 120°14'0 0.0
2018-Apr-16 13:46N 36°01' E 120°14'0 0.0
2018-Apr-16 13:01N 36°01' E 120°14'0 0.0
2018-Apr-16 11:53N 36°01' E 120°14'0 0.0
2018-Apr-16 11:16N 36°01' E 120°14'0 0.0
2018-Apr-16 11:00N 36°01' E 120°14'1 2.1
2018-Apr-16 10:30N 36°01' E 120°14'5 9.7
2018-Apr-16 09:59N 36°01' E 120°20'14611.0
2018-Apr-15 20:43N 38°02' E 122°04'518.4
2018-Apr-15 20:26N 38°05' E 121°59'2018.9
2018-Apr-15 19:24N 38°14' E 121°37'1018.7
2018-Apr-15 18:52N 38°19' E 121°25'1118.5
2018-Apr-15 18:18N 38°25' E 121°14'2017.9
2018-Apr-15 17:11N 38°34' E 120°52'317.6
2018-Apr-15 17:00N 38°35' E 120°48'1317.4
2018-Apr-15 16:16N 38°37' E 120°32'  

Dump ship's entire track history